Time;durP1;ratioP1;P1;durP2;ratioP2;P2;SDS_P1;SDS_P2;PMS_P1;PMS_P2;Temp;Humidity;BMP_temperature;BMP_pressure;BME280_temperature;BME280_humidity;BME280_pressure;Samples;Min_cycle;Max_cycle;Signal;HPM_P1;HPM_P2
2022/05/23 00:00:17;;;;;;;10.07;4.40;;;15.10;99.90;;;;;;7362433;32;20226;-60
2022/05/23 00:04:19;;;;;;;7.83;3.70;;;15.00;99.90;;;;;;7362239;32;20246;-60
2022/05/23 00:08:22;;;;;;;7.60;4.18;;;15.00;99.90;;;;;;7363335;32;20103;-60
2022/05/23 00:12:24;;;;;;;11.12;4.15;;;15.00;99.90;;;;;;7366514;32;20215;-60
2022/05/23 00:16:28;;;;;;;7.35;4.60;;;14.90;99.90;;;;;;7367281;32;20126;-60
2022/05/23 00:20:30;;;;;;;6.15;3.75;;;14.90;99.90;;;;;;7370200;32;20464;-60
2022/05/23 00:24:32;;;;;;;7.60;3.65;;;14.80;99.90;;;;;;7359507;32;20275;-60
2022/05/23 00:28:34;;;;;;;5.85;3.70;;;14.90;99.90;;;;;;7362747;32;20629;-60
2022/05/23 00:36:58;;;;;;;8.32;3.75;;;14.90;99.90;;;;;;7332012;32;20126;-60
2022/05/23 00:45:25;;;;;;;7.00;3.87;;;14.90;99.90;;;;;;7361240;32;20193;-60
2022/05/23 00:49:32;;;;;;;5.95;3.83;;;14.80;99.90;;;;;;7346608;32;20210;-60
2022/05/23 00:53:46;;;;;;;8.03;3.70;;;14.70;99.90;;;;;;7361849;32;20099;-60
2022/05/23 00:57:51;;;;;;;6.65;4.05;;;14.70;99.90;;;;;;7363327;32;20479;-60
2022/05/23 01:01:53;;;;;;;7.15;3.80;;;14.70;99.90;;;;;;7354549;32;20100;-60
2022/05/23 01:05:54;;;;;;;4.68;3.78;;;14.70;99.90;;;;;;7365185;32;20122;-60
2022/05/23 01:09:56;;;;;;;6.12;4.25;;;14.60;99.90;;;;;;7361747;32;20621;-60
2022/05/23 01:13:58;;;;;;;5.93;3.72;;;14.60;99.90;;;;;;7366912;32;20195;-60
2022/05/23 01:18:01;;;;;;;7.00;3.83;;;14.60;99.90;;;;;;7358789;32;20165;-60
2022/05/23 01:22:23;;;;;;;10.82;4.22;;;14.60;99.90;;;;;;7369690;32;20150;-60
2022/05/23 01:26:25;;;;;;;4.85;3.30;;;14.60;99.90;;;;;;7356824;32;20611;-60
2022/05/23 01:30:28;;;;;;;10.32;4.00;;;14.60;99.90;;;;;;7354303;32;20145;-60
2022/05/23 01:34:29;;;;;;;8.85;3.87;;;14.60;99.90;;;;;;7358668;32;20236;-60
2022/05/23 01:38:31;;;;;;;6.40;4.43;;;14.50;99.90;;;;;;7333274;32;20107;-60
2022/05/23 01:42:33;;;;;;;5.28;3.80;;;14.50;99.90;;;;;;7364180;32;20213;-60
2022/05/23 01:46:35;;;;;;;6.53;3.92;;;14.50;99.90;;;;;;7359636;32;20214;-60
2022/05/23 01:50:37;;;;;;;7.00;4.22;;;14.40;99.90;;;;;;7362270;32;20107;-60
2022/05/23 01:54:39;;;;;;;9.27;4.00;;;14.40;99.90;;;;;;7369031;32;20125;-60
2022/05/23 02:03:02;;;;;;;5.78;3.45;;;14.40;99.90;;;;;;7362368;32;20245;-60
2022/05/23 02:07:05;;;;;;;9.70;4.35;;;14.50;99.90;;;;;;7364348;32;20103;-60
2022/05/23 02:11:07;;;;;;;5.60;3.25;;;14.50;99.90;;;;;;7364316;32;20131;-60
2022/05/23 02:15:10;;;;;;;3.65;3.00;;;14.60;99.90;;;;;;7363296;32;20700;-60
2022/05/23 02:19:12;;;;;;;4.53;2.33;;;14.70;99.90;;;;;;7367009;32;20103;-60
2022/05/23 02:23:13;;;;;;;4.85;2.00;;;14.70;99.90;;;;;;7363992;32;20154;-60
2022/05/23 02:27:15;;;;;;;5.53;2.20;;;14.80;99.90;;;;;;7364711;32;20096;-60
2022/05/23 02:31:17;;;;;;;3.80;2.15;;;14.90;99.90;;;;;;7356456;32;20737;-60
2022/05/23 02:35:19;;;;;;;4.72;2.00;;;15.00;99.90;;;;;;7338020;32;20108;-60
2022/05/23 02:39:21;;;;;;;2.80;1.67;;;15.00;99.90;;;;;;7365252;32;20099;-60
2022/05/23 02:43:23;;;;;;;7.18;2.47;;;15.00;99.90;;;;;;7364682;32;20103;-60
2022/05/23 02:47:24;;;;;;;7.30;3.45;;;15.10;99.90;;;;;;7369532;32;20102;-60
2022/05/23 02:51:26;;;;;;;5.97;2.80;;;15.00;99.90;;;;;;7351587;32;20118;-60
2022/05/23 02:55:28;;;;;;;6.70;3.33;;;15.10;99.90;;;;;;7361585;32;20286;-60
2022/05/23 02:59:29;;;;;;;6.20;3.28;;;15.00;99.90;;;;;;7345199;32;20286;-59
2022/05/23 03:03:33;;;;;;;5.25;3.20;;;15.00;99.90;;;;;;7357028;32;20228;-59
2022/05/23 03:07:35;;;;;;;5.90;3.15;;;15.00;99.90;;;;;;7358080;32;20142;-60
2022/05/23 03:11:36;;;;;;;7.78;3.22;;;14.90;99.90;;;;;;7349680;32;20103;-59
2022/05/23 03:15:38;;;;;;;8.90;3.70;;;14.80;99.90;;;;;;7359784;32;20588;-60
2022/05/23 03:19:40;;;;;;;5.07;3.37;;;14.70;99.90;;;;;;7347452;32;20202;-60
2022/05/23 03:28:02;;;;;;;8.82;3.10;;;14.70;99.90;;;;;;7361839;32;20256;-60
2022/05/23 03:32:05;;;;;;;6.20;3.30;;;14.70;99.90;;;;;;7364598;32;20103;-60
2022/05/23 03:36:08;;;;;;;6.25;3.50;;;14.60;99.90;;;;;;7364125;32;20095;-60
2022/05/23 03:40:10;;;;;;;5.97;3.25;;;14.60;99.90;;;;;;7362594;32;20131;-59
2022/05/23 03:44:12;;;;;;;6.35;3.45;;;14.70;99.90;;;;;;7369968;32;20175;-59
2022/05/23 03:48:14;;;;;;;10.20;2.80;;;14.60;99.90;;;;;;7355254;32;20460;-60
2022/05/23 03:52:15;;;;;;;7.35;3.37;;;14.60;99.90;;;;;;7365308;32;20161;-59
2022/05/23 03:56:17;;;;;;;6.25;3.53;;;14.60;99.90;;;;;;7357547;32;22325;-60
2022/05/23 04:00:19;;;;;;;6.62;3.20;;;14.50;99.90;;;;;;7362539;32;20179;-60
2022/05/23 04:04:22;;;;;;;8.13;3.85;;;14.40;99.90;;;;;;7365638;32;20149;-60
2022/05/23 04:08:24;;;;;;;8.35;3.33;;;14.40;99.90;;;;;;7351029;32;20191;-60
2022/05/23 04:12:25;;;;;;;7.22;3.22;;;14.30;99.90;;;;;;7365813;32;20137;-60
2022/05/23 04:16:29;;;;;;;4.20;3.33;;;14.30;99.90;;;;;;7356069;32;20137;-60
2022/05/23 04:20:31;;;;;;;6.95;3.40;;;14.30;99.90;;;;;;7364705;32;20785;-60
2022/05/23 04:24:33;;;;;;;5.50;2.97;;;14.20;99.90;;;;;;7355969;32;20313;-61
2022/05/23 04:28:36;;;;;;;5.68;3.20;;;14.20;99.90;;;;;;7362793;32;20218;-61
2022/05/23 04:36:58;;;;;;;5.20;3.58;;;14.30;99.90;;;;;;7360778;32;20095;-61
2022/05/23 04:40:59;;;;;;;5.87;3.17;;;14.40;99.90;;;;;;7342726;32;20224;-60
2022/05/23 04:45:01;;;;;;;6.95;3.40;;;14.40;99.90;;;;;;7360729;32;20123;-61
2022/05/23 04:53:24;;;;;;;6.45;3.12;;;14.70;99.90;;;;;;7342015;32;20141;-64
2022/05/23 04:57:25;;;;;;;8.32;3.40;;;14.70;99.90;;;;;;7343330;32;20252;-63
2022/05/23 05:01:27;;;;;;;15.63;8.60;;;14.80;99.90;;;;;;7366118;32;20133;-62
2022/05/23 05:05:29;;;;;;;14.65;8.80;;;14.80;99.90;;;;;;7359730;32;20133;-63
2022/05/23 05:09:33;;;;;;;5.87;3.47;;;14.80;99.90;;;;;;7364185;32;20125;-64
2022/05/23 05:13:36;;;;;;;8.93;3.85;;;14.90;99.90;;;;;;7357685;32;20442;-64
2022/05/23 05:17:37;;;;;;;7.57;3.83;;;15.10;99.90;;;;;;7359460;32;20103;-64
2022/05/23 05:21:39;;;;;;;6.87;3.08;;;15.20;99.90;;;;;;7348605;32;20095;-65
2022/05/23 05:25:47;;;;;;;8.82;2.83;;;15.30;99.90;;;;;;7352131;32;20172;-65
2022/05/23 05:29:49;;;;;;;5.70;3.53;;;15.40;99.90;;;;;;7349554;32;20102;-65
2022/05/23 05:33:56;;;;;;;5.30;2.67;;;15.50;99.90;;;;;;7361762;32;20191;-66
2022/05/23 05:38:20;;;;;;;4.57;2.62;;;15.70;99.90;;;;;;7362540;32;20126;-63
2022/05/23 05:42:30;;;;;;;5.15;2.70;;;15.90;99.90;;;;;;7360735;32;20181;-63
2022/05/23 05:46:38;;;;;;;6.60;2.75;;;16.10;99.90;;;;;;7355566;32;20209;-63
2022/05/23 05:50:41;;;;;;;3.80;2.03;;;16.20;99.90;;;;;;7359722;32;20107;-65
2022/05/23 05:54:43;;;;;;;3.28;2.12;;;16.30;99.90;;;;;;7345558;32;20492;-62
2022/05/23 05:58:45;;;;;;;5.07;2.10;;;16.50;99.90;;;;;;7355843;32;20610;-65
2022/05/23 06:02:50;;;;;;;4.20;1.85;;;16.60;99.90;;;;;;7354599;32;20439;-65
2022/05/23 06:11:24;;;;;;;4.35;1.70;;;16.90;99.90;;;;;;7362829;32;20141;-65
2022/05/23 06:15:26;;;;;;;4.57;1.70;;;16.90;99.90;;;;;;7333693;32;20103;-64
2022/05/23 06:19:28;;;;;;;3.90;1.90;;;17.00;99.90;;;;;;7363783;32;20203;-66
2022/05/23 06:23:30;;;;;;;5.05;2.10;;;17.20;99.90;;;;;;7360582;32;20182;-66
2022/05/23 06:27:31;;;;;;;9.02;1.83;;;17.20;99.90;;;;;;7345025;32;20107;-64
2022/05/23 06:31:33;;;;;;;4.05;1.55;;;17.40;99.90;;;;;;7344498;32;20199;-66
2022/05/23 06:35:35;;;;;;;3.53;1.50;;;17.60;99.90;;;;;;7356454;32;20130;-65
2022/05/23 06:39:37;;;;;;;2.87;1.50;;;17.80;99.90;;;;;;7346027;32;20163;-65
2022/05/23 06:43:41;;;;;;;3.75;1.70;;;18.00;99.90;;;;;;7346912;32;20238;-65
2022/05/23 06:47:42;;;;;;;4.72;1.25;;;18.20;99.90;;;;;;7359231;32;20397;-66
2022/05/23 06:51:49;;;;;;;3.40;1.85;;;18.30;99.90;;;;;;7362663;32;20129;-66
2022/05/23 06:55:51;;;;;;;2.87;1.33;;;18.40;99.90;;;;;;7340667;32;20688;-65
2022/05/23 06:59:53;;;;;;;4.22;1.70;;;18.70;99.90;;;;;;7354719;32;20253;-64
2022/05/23 07:03:55;;;;;;;5.70;1.80;;;18.90;99.90;;;;;;7355285;32;20209;-64
2022/05/23 07:12:19;;;;;;;3.78;1.70;;;19.50;99.90;;;;;;7350694;32;20174;-64
2022/05/23 07:16:28;;;;;;;6.70;1.73;;;19.70;99.90;;;;;;7348589;32;20126;-64
2022/05/23 07:20:30;;;;;;;4.62;1.70;;;19.90;99.90;;;;;;7358224;32;20957;-64
2022/05/23 07:24:32;;;;;;;5.15;1.90;;;20.00;99.90;;;;;;7363364;32;20107;-65
2022/05/23 07:28:35;;;;;;;4.47;1.45;;;20.20;99.90;;;;;;7358118;32;20244;-64
2022/05/23 07:32:37;;;;;;;3.90;1.55;;;20.40;99.90;;;;;;7352017;32;20618;-64
2022/05/23 07:36:38;;;;;;;6.93;1.65;;;20.50;99.90;;;;;;7353661;32;20099;-65
2022/05/23 07:40:40;;;;;;;4.25;2.17;;;20.40;99.90;;;;;;7359761;32;20207;-65
2022/05/23 07:44:42;;;;;;;4.32;1.67;;;20.30;99.90;;;;;;7343422;32;20111;-64
2022/05/23 07:48:46;;;;;;;4.03;1.67;;;20.30;99.90;;;;;;7347060;32;20099;-65
2022/05/23 08:01:29;;;;;;;4.80;1.70;;;20.40;99.90;;;;;;7336837;32;21436;-64
2022/05/23 08:05:32;;;;;;;3.42;1.60;;;20.50;99.90;;;;;;7350935;32;20202;-65
2022/05/23 08:09:33;;;;;;;4.87;1.73;;;20.60;99.90;;;;;;7356521;32;20469;-64
2022/05/23 08:13:38;;;;;;;6.05;1.85;;;21.20;99.90;;;;;;7357730;32;20183;-65
2022/05/23 08:17:40;;;;;;;6.00;2.25;;;21.60;99.90;;;;;;7356532;32;20190;-64
2022/05/23 08:21:50;;;;;;;4.55;2.25;;;21.90;99.90;;;;;;7353043;32;20103;-65
2022/05/23 08:25:52;;;;;;;5.07;2.30;;;22.00;99.90;;;;;;7361823;32;20208;-65
2022/05/23 08:29:54;;;;;;;5.00;2.17;;;22.80;99.90;;;;;;7341441;32;20347;-64
2022/05/23 08:33:56;;;;;;;7.47;1.95;;;23.60;99.90;;;;;;7361316;32;20271;-64
2022/05/23 08:38:00;;;;;;;4.18;1.67;;;24.10;99.90;;;;;;7364624;32;20095;-64
2022/05/23 08:42:24;;;;;;;4.62;1.48;;;24.40;99.90;;;;;;7336205;32;20213;-65
2022/05/23 08:46:50;;;;;;;6.40;1.55;;;24.40;99.90;;;;;;7341464;32;20154;-65
2022/05/23 08:51:01;;;;;;;3.80;1.65;;;24.30;99.90;;;;;;7356504;32;20481;-65
2022/05/23 08:55:24;;;;;;;4.80;1.73;;;24.00;99.90;;;;;;7364252;32;20195;-63
2022/05/23 08:59:31;;;;;;;4.00;1.70;;;23.50;99.90;;;;;;7355062;32;20107;-64
2022/05/23 09:03:38;;;;;;;2.22;1.75;;;23.80;99.90;;;;;;7355356;32;20213;-64
2022/05/23 09:07:47;;;;;;;6.50;1.60;;;24.90;99.90;;;;;;7354304;32;20694;-65
2022/05/23 09:11:55;;;;;;;4.90;1.77;;;25.90;99.90;;;;;;7347946;32;20278;-65
2022/05/23 09:16:04;;;;;;;4.53;1.55;;;27.00;99.90;;;;;;7364904;32;20123;-65
2022/05/23 09:20:22;;;;;;;5.03;1.60;;;27.90;98.10;;;;;;7351321;32;20193;-64
2022/05/23 09:24:24;;;;;;;6.25;1.83;;;27.50;94.30;;;;;;7351557;32;20159;-64
2022/05/23 09:28:34;;;;;;;5.25;1.50;;;26.30;96.70;;;;;;7371827;32;20204;-65
2022/05/23 09:33:02;;;;;;;5.35;1.55;;;25.70;97.80;;;;;;7376970;32;20170;-65
2022/05/23 09:37:23;;;;;;;7.05;1.48;;;26.10;99.90;;;;;;7351653;32;20111;-65
2022/05/23 09:47:44;;;;;;;3.90;1.58;;;26.40;95.80;;;;;;7377300;32;20498;-65
2022/05/23 09:51:00;;;;;;;6.03;1.58;;;26.90;92.50;;;;;;7372172;32;20222;-66
2022/05/23 09:55:05;;;;;;;2.97;1.35;;;27.00;93.80;;;;;;7373861;32;20244;-65
2022/05/23 09:59:21;;;;;;;3.08;1.20;;;27.10;94.70;;;;;;7370480;32;20229;-66
2022/05/23 10:03:26;;;;;;;3.62;1.20;;;27.70;93.90;;;;;;7351252;32;20519;-67
2022/05/23 10:07:31;;;;;;;4.32;1.40;;;27.60;91.40;;;;;;7362317;32;20230;-67
2022/05/23 10:11:36;;;;;;;6.28;1.70;;;27.20;95.30;;;;;;7360934;32;20645;-66
2022/05/23 10:15:43;;;;;;;3.95;1.23;;;26.70;93.50;;;;;;7344956;32;20481;-67
2022/05/23 10:19:44;;;;;;;4.97;1.20;;;26.40;94.50;;;;;;7364387;32;20111;-65
2022/05/23 10:24:01;;;;;;;6.50;1.30;;;25.70;97.70;;;;;;7345158;32;20621;-65
2022/05/23 10:28:18;;;;;;;4.30;1.48;;;25.00;98.90;;;;;;7358025;32;20841;-65
2022/05/23 10:32:36;;;;;;;3.00;1.27;;;24.70;98.80;;;;;;7352547;32;20517;-65
2022/05/23 10:36:42;;;;;;;5.28;1.70;;;24.40;99.90;;;;;;7349555;32;20214;-66
2022/05/23 10:45:36;;;;;;;3.33;1.37;;;24.40;99.90;;;;;;7354705;32;20272;-65
2022/05/23 10:49:46;;;;;;;2.37;1.23;;;24.40;99.90;;;;;;7354806;32;20202;-66
2022/05/23 10:53:55;;;;;;;7.55;1.60;;;24.90;99.90;;;;;;7345424;32;20103;-64
2022/05/23 10:58:18;;;;;;;3.97;1.50;;;25.50;99.90;;;;;;7356682;32;20096;-65
2022/05/23 11:03:09;;;;;;;3.35;1.40;;;25.40;99.80;;;;;;7349562;32;20198;-64
2022/05/23 11:07:29;;;;;;;5.07;1.45;;;25.40;99.90;;;;;;7340751;32;20186;-66
2022/05/23 11:11:51;;;;;;;2.90;1.50;;;25.70;99.10;;;;;;7367764;32;20212;-66
2022/05/23 11:16:11;;;;;;;3.87;1.50;;;25.50;99.90;;;;;;7366991;32;20121;-66
2022/05/23 11:20:32;;;;;;;4.22;1.50;;;25.60;99.90;;;;;;7354044;32;20114;-64
2022/05/23 11:24:59;;;;;;;5.25;1.83;;;25.20;99.90;;;;;;7358407;32;20175;-65
2022/05/23 11:33:44;;;;;;;4.40;1.65;;;25.20;99.90;;;;;;7347952;32;20480;-65
2022/05/23 11:37:48;;;;;;;5.70;1.67;;;25.10;99.90;;;;;;7356095;32;20121;-65
2022/05/23 11:41:50;;;;;;;4.68;1.40;;;25.50;99.90;;;;;;7363374;32;20132;-66
2022/05/23 11:46:04;;;;;;;2.97;1.50;;;25.60;99.90;;;;;;7360864;32;20110;-65
2022/05/23 11:50:18;;;;;;;3.70;1.60;;;26.00;99.90;;;;;;7359366;32;20103;-65
2022/05/23 11:54:36;;;;;;;5.32;1.45;;;25.90;99.90;;;;;;7340058;32;20123;-66
2022/05/23 11:58:49;;;;;;;3.60;1.40;;;25.80;99.90;;;;;;7346967;32;20222;-64
2022/05/23 12:03:08;;;;;;;5.80;1.50;;;25.90;99.90;;;;;;7339099;32;20492;-65
2022/05/23 12:07:41;;;;;;;3.30;1.27;;;26.20;99.90;;;;;;7352269;32;20223;-64
2022/05/23 12:12:04;;;;;;;6.47;1.50;;;25.60;99.90;;;;;;7355583;32;20099;-64
2022/05/23 12:16:20;;;;;;;4.12;1.60;;;25.40;99.90;;;;;;7335010;32;20129;-65
2022/05/23 12:20:25;;;;;;;2.30;1.35;;;25.10;99.90;;;;;;7363259;32;20220;-65
2022/05/23 12:24:31;;;;;;;4.03;1.73;;;25.00;99.90;;;;;;7341965;32;20142;-65
2022/05/23 12:29:01;;;;;;;3.28;1.37;;;24.90;99.90;;;;;;7342800;32;20111;-65
2022/05/23 12:33:02;;;;;;;6.37;1.70;;;24.90;99.90;;;;;;7356067;32;20122;-65
2022/05/23 12:37:04;;;;;;;3.50;1.60;;;24.90;99.90;;;;;;7347470;32;20406;-64
2022/05/23 12:41:53;;;;;;;3.58;1.80;;;25.10;99.90;;;;;;7348949;32;20103;-65
2022/05/23 12:46:17;;;;;;;3.28;1.60;;;25.20;99.90;;;;;;7270186;32;20189;-67
2022/05/23 12:50:40;;;;;;;2.92;1.67;;;24.90;99.90;;;;;;7350922;32;20091;-65
2022/05/23 12:55:24;;;;;;;4.82;1.67;;;25.00;99.90;;;;;;7355044;32;20248;-66
2022/05/23 12:59:38;;;;;;;5.72;1.80;;;25.00;99.90;;;;;;7358045;32;20107;-66
2022/05/23 13:04:05;;;;;;;5.97;2.17;;;24.90;99.90;;;;;;7349085;32;20098;-66
2022/05/23 13:08:30;;;;;;;8.52;2.50;;;24.60;99.90;;;;;;7352939;32;20178;-65
2022/05/23 13:12:59;;;;;;;4.90;2.20;;;24.20;99.90;;;;;;7345068;32;20209;-65
2022/05/23 13:17:00;;;;;;;5.90;2.10;;;23.90;99.90;;;;;;7350692;32;20138;-64
2022/05/23 13:25:32;;;;;;;6.80;2.35;;;23.30;99.90;;;;;;7356874;32;20193;-64
2022/05/23 13:29:35;;;;;;;5.53;2.60;;;22.90;99.90;;;;;;7363318;32;20099;-63
2022/05/23 13:33:45;;;;;;;4.85;2.17;;;22.80;99.90;;;;;;7356689;32;20243;-65
2022/05/23 13:37:47;;;;;;;6.43;2.58;;;22.60;99.90;;;;;;7358025;32;20127;-63
2022/05/23 13:41:49;;;;;;;6.40;2.45;;;22.40;99.90;;;;;;7351321;32;20134;-63
2022/05/23 13:46:04;;;;;;;4.62;2.83;;;22.20;99.90;;;;;;7366156;32;20567;-64
2022/05/23 13:50:11;;;;;;;7.68;3.20;;;22.10;99.90;;;;;;7362343;32;20103;-64
2022/05/23 13:54:24;;;;;;;5.18;3.03;;;21.90;99.90;;;;;;7364946;32;20321;-64
2022/05/23 13:58:30;;;;;;;6.95;3.30;;;21.60;99.90;;;;;;7358387;32;20595;-65
2022/05/23 14:02:36;;;;;;;5.90;2.95;;;21.40;99.90;;;;;;7361481;32;20166;-64
2022/05/23 14:06:45;;;;;;;9.15;3.55;;;21.20;99.90;;;;;;7353539;32;20110;-64
2022/05/23 14:10:47;;;;;;;7.50;3.17;;;21.10;99.90;;;;;;7358510;32;20308;-64
2022/05/23 14:15:22;;;;;;;7.70;3.25;;;20.90;99.90;;;;;;7347739;32;20129;-64
2022/05/23 14:19:27;;;;;;;6.03;3.08;;;20.80;99.90;;;;;;7345163;32;20134;-64
2022/05/23 14:23:34;;;;;;;6.55;3.58;;;20.50;99.90;;;;;;7337094;32;20123;-64
2022/05/23 14:27:54;;;;;;;7.07;3.72;;;20.40;99.90;;;;;;7347686;32;20324;-65
2022/05/23 14:32:00;;;;;;;11.63;3.95;;;20.60;99.90;;;;;;7357519;32;20487;-64
2022/05/23 14:36:24;;;;;;;10.40;4.00;;;20.90;99.90;;;;;;7361284;32;20261;-65
2022/05/23 14:40:42;;;;;;;7.72;3.67;;;21.50;99.90;;;;;;7357675;32;20245;-65
2022/05/23 14:44:44;;;;;;;9.82;3.45;;;21.90;99.90;;;;;;7363769;32;20171;-65
2022/05/23 14:49:05;;;;;;;9.40;3.50;;;21.70;99.90;;;;;;7363938;32;20177;-65
2022/05/23 15:01:49;;;;;;;13.15;4.80;;;21.10;99.90;;;;;;7351751;32;20274;-65
2022/05/23 15:05:53;;;;;;;9.07;4.25;;;21.20;99.90;;;;;;7368466;32;20095;-65
2022/05/23 15:09:55;;;;;;;10.00;4.53;;;21.00;99.90;;;;;;7347715;32;20380;-65
2022/05/23 15:13:58;;;;;;;8.65;4.35;;;20.90;99.90;;;;;;7367771;32;20102;-65
2022/05/23 15:17:59;;;;;;;11.75;4.90;;;20.90;99.90;;;;;;7362327;32;20130;-65
2022/05/23 15:22:02;;;;;;;11.63;3.92;;;20.90;99.90;;;;;;7349189;32;20149;-64
2022/05/23 15:26:04;;;;;;;10.80;4.28;;;20.90;99.90;;;;;;7361232;32;20178;-65
2022/05/23 15:30:10;;;;;;;8.20;3.92;;;20.90;99.90;;;;;;7359625;32;20132;-64
2022/05/23 15:34:12;;;;;;;8.85;4.30;;;21.00;99.90;;;;;;7359680;32;20233;-65
2022/05/23 15:38:14;;;;;;;10.98;4.07;;;21.00;99.90;;;;;;7343361;32;20570;-65
2022/05/23 15:42:28;;;;;;;8.75;4.22;;;20.90;99.90;;;;;;7356466;32;20179;-64
2022/05/23 15:46:32;;;;;;;9.95;4.18;;;20.80;99.90;;;;;;7352229;32;20175;-63
2022/05/23 15:50:35;;;;;;;8.07;4.20;;;20.70;99.90;;;;;;7345847;32;20091;-64
2022/05/23 15:54:37;;;;;;;8.38;4.00;;;20.60;99.90;;;;;;7362863;32;20095;-64
2022/05/23 15:58:41;;;;;;;4.90;3.60;;;20.70;99.90;;;;;;7365050;32;20130;-64
2022/05/23 16:02:43;;;;;;;8.15;4.03;;;20.80;99.90;;;;;;7354481;32;20202;-66
2022/05/23 16:06:45;;;;;;;9.82;4.47;;;20.80;99.90;;;;;;7360920;32;20115;-67
2022/05/23 16:11:07;;;;;;;11.43;4.25;;;20.80;99.90;;;;;;7364304;32;20125;-68
2022/05/23 16:15:11;;;;;;;8.38;4.10;;;20.60;99.90;;;;;;7367984;32;20417;-68
2022/05/23 16:19:18;;;;;;;8.60;4.62;;;20.40;99.90;;;;;;7357203;32;20441;-68
2022/05/23 16:23:21;;;;;;;11.48;5.10;;;20.30;99.90;;;;;;7355271;32;20154;-67
2022/05/23 16:27:22;;;;;;;10.45;4.82;;;20.10;99.90;;;;;;7359975;32;20216;-67
2022/05/23 16:31:24;;;;;;;10.77;5.60;;;20.10;99.90;;;;;;7361003;32;20185;-67
2022/05/23 16:40:07;;;;;;;15.05;6.15;;;19.90;99.90;;;;;;7273615;32;20209;-66
2022/05/23 16:44:19;;;;;;;11.50;5.10;;;19.70;99.90;;;;;;7318796;32;20181;-65
2022/05/23 16:48:20;;;;;;;;;;;19.50;99.90;;;;;;7365007;32;20213;-66
2022/05/23 16:52:22;;;;;;;8.00;4.30;;;19.40;99.90;;;;;;7350910;32;20100;-66
2022/05/23 16:56:25;;;;;;;6.93;3.95;;;19.30;99.90;;;;;;7363097;32;20383;-66
2022/05/23 17:00:27;;;;;;;8.07;3.87;;;19.20;99.90;;;;;;7342863;32;20221;-66
2022/05/23 17:04:29;;;;;;;5.30;2.95;;;19.20;99.90;;;;;;7364464;32;20100;-62
2022/05/23 17:08:31;;;;;;;5.72;2.83;;;19.30;99.90;;;;;;7354906;32;20195;-63
2022/05/23 17:12:33;;;;;;;4.55;2.90;;;19.20;99.90;;;;;;7348029;32;20249;-64
2022/05/23 17:16:35;;;;;;;6.60;3.65;;;19.20;99.90;;;;;;7365047;32;20773;-63
2022/05/23 17:20:41;;;;;;;8.57;3.60;;;19.10;99.90;;;;;;7365905;32;20118;-63
2022/05/23 17:24:43;;;;;;;7.68;2.90;;;19.00;99.90;;;;;;7364025;32;20714;-64
2022/05/23 17:28:46;;;;;;;7.97;2.95;;;19.10;99.90;;;;;;7363567;32;20537;-66
2022/05/23 17:32:48;;;;;;;5.90;3.45;;;19.10;99.90;;;;;;7361612;32;20129;-66
2022/05/23 17:36:50;;;;;;;6.90;3.92;;;19.00;99.90;;;;;;7359224;32;20257;-65
2022/05/23 17:40:59;;;;;;;6.82;3.78;;;18.90;99.90;;;;;;7366940;32;20102;-66
2022/05/23 17:45:01;;;;;;;8.05;3.70;;;18.80;99.90;;;;;;7340952;32;20358;-65
2022/05/23 17:49:02;;;;;;;6.00;3.67;;;18.90;99.90;;;;;;7349831;32;20185;-66
2022/05/23 17:53:05;;;;;;;9.43;4.47;;;18.80;99.90;;;;;;7369010;32;20103;-65
2022/05/23 17:57:07;;;;;;;8.75;3.95;;;18.80;99.90;;;;;;7367110;32;20099;-66
2022/05/23 18:01:09;;;;;;;10.13;4.35;;;18.70;99.90;;;;;;7342474;32;20487;-65
2022/05/23 18:05:16;;;;;;;8.70;5.12;;;18.60;99.90;;;;;;7348585;32;20099;-66
2022/05/23 18:09:17;;;;;;;8.75;5.75;;;18.50;99.90;;;;;;7366271;32;20260;-65
2022/05/23 18:13:19;;;;;;;8.93;5.60;;;18.50;99.90;;;;;;7355074;32;20129;-67
2022/05/23 18:22:02;;;;;;;13.38;6.12;;;18.40;99.90;;;;;;7360624;32;20100;-61
2022/05/23 18:26:04;;;;;;;12.07;6.82;;;18.50;99.90;;;;;;7368594;32;20190;-68
2022/05/23 18:30:06;;;;;;;13.57;8.18;;;18.50;99.90;;;;;;7349830;32;20242;-67
2022/05/23 18:34:08;;;;;;;15.70;8.25;;;18.50;99.90;;;;;;7364151;32;20098;-64
2022/05/23 18:38:14;;;;;;;12.93;7.90;;;18.50;99.90;;;;;;7342147;32;20183;-67
2022/05/23 18:42:16;;;;;;;12.23;7.62;;;18.50;99.90;;;;;;7351691;32;20121;-66
2022/05/23 18:46:17;;;;;;;13.62;6.72;;;18.50;99.90;;;;;;7345107;32;20520;-66
2022/05/23 18:50:19;;;;;;;9.60;5.30;;;18.50;99.90;;;;;;7348703;32;20103;-67
2022/05/23 18:54:22;;;;;;;11.68;6.15;;;18.30;99.90;;;;;;7366495;32;20205;-68
2022/05/23 18:58:24;;;;;;;9.50;5.65;;;18.20;99.90;;;;;;7361164;32;20107;-66
2022/05/23 19:02:42;;;;;;;11.55;5.40;;;18.20;99.90;;;;;;7363678;32;20570;-68
2022/05/23 19:06:44;;;;;;;9.35;5.45;;;18.10;99.90;;;;;;7368023;32;20500;-69
2022/05/23 19:10:50;;;;;;;12.95;6.10;;;18.10;99.90;;;;;;7360646;32;20968;-66
2022/05/23 19:14:52;;;;;;;10.48;5.37;;;18.10;99.90;;;;;;7367480;32;20218;-66
2022/05/23 19:18:53;;;;;;;9.18;5.68;;;18.00;99.90;;;;;;7360161;32;20194;-67
2022/05/23 19:22:55;;;;;;;7.12;4.43;;;17.90;99.90;;;;;;7371749;32;20104;-66
2022/05/23 19:26:57;;;;;;;9.48;7.22;;;17.60;99.90;;;;;;7356692;32;20117;-66
2022/05/23 19:30:58;;;;;;;17.52;15.82;;;17.40;99.90;;;;;;7340410;32;20145;-66
2022/05/23 19:35:00;;;;;;;22.92;20.55;;;17.10;99.90;;;;;;7363061;32;20573;-67
2022/05/23 19:39:05;;;;;;;25.75;22.40;;;16.70;99.90;;;;;;7359009;32;20775;-67
2022/05/23 19:43:06;;;;;;;27.98;24.98;;;16.30;99.90;;;;;;7364411;32;20186;-65
2022/05/23 19:47:08;;;;;;;26.95;24.12;;;16.00;99.90;;;;;;7356584;32;20195;-65
2022/05/23 19:51:10;;;;;;;25.80;23.08;;;15.80;99.90;;;;;;7368460;32;20587;-66
2022/05/23 19:55:13;;;;;;;27.20;24.33;;;15.50;99.90;;;;;;7366314;32;20091;-64
2022/05/23 19:59:15;;;;;;;26.87;24.02;;;15.20;99.90;;;;;;7351017;32;20400;-64
2022/05/23 20:07:38;;;;;;;29.45;26.35;;;15.10;99.90;;;;;;7358149;32;20130;-66
2022/05/23 20:11:39;;;;;;;26.48;23.85;;;14.90;99.90;;;;;;7360751;32;20413;-64
2022/05/23 20:15:41;;;;;;;20.73;17.62;;;14.80;99.90;;;;;;7363477;32;20533;-65
2022/05/23 20:19:43;;;;;;;16.55;14.77;;;14.70;99.90;;;;;;7355287;32;20198;-63
2022/05/23 20:23:50;;;;;;;16.67;14.48;;;14.60;99.90;;;;;;7365879;32;20218;-65
2022/05/23 20:28:04;;;;;;;20.45;15.75;;;14.40;99.90;;;;;;7350478;32;20254;-64
2022/05/23 20:32:07;;;;;;;17.70;15.80;;;14.50;99.90;;;;;;7356972;32;20103;-66
2022/05/23 20:36:18;;;;;;;15.43;13.27;;;14.40;99.90;;;;;;7364835;32;20139;-67
2022/05/23 20:40:20;;;;;;;12.65;11.35;;;14.30;99.90;;;;;;7359848;32;20119;-66
2022/05/23 20:44:21;;;;;;;14.13;12.35;;;14.30;99.90;;;;;;7358973;32;20729;-66
2022/05/23 20:48:23;;;;;;;15.55;13.38;;;14.20;99.90;;;;;;7344926;32;20190;-64
2022/05/23 20:52:25;;;;;;;20.02;14.45;;;14.10;99.90;;;;;;7359084;32;20763;-63
2022/05/23 20:56:27;;;;;;;17.35;15.00;;;14.20;99.90;;;;;;7340353;32;20519;-62
2022/05/23 21:00:29;;;;;;;19.58;16.08;;;14.20;99.90;;;;;;7341320;32;20931;-61
2022/05/23 21:04:32;;;;;;;22.95;17.75;;;14.30;99.90;;;;;;7367081;32;20657;-62
2022/05/23 21:08:34;;;;;;;25.55;21.08;;;14.20;99.90;;;;;;7354680;32;20205;-63
2022/05/23 21:12:40;;;;;;;28.08;25.12;;;14.20;99.90;;;;;;7348395;32;20096;-62
2022/05/23 21:16:42;;;;;;;34.23;28.23;;;14.20;99.90;;;;;;7367039;32;20243;-61
2022/05/23 21:20:44;;;;;;;33.55;29.08;;;14.20;99.90;;;;;;7362284;32;20111;-63
2022/05/23 21:24:48;;;;;;;36.25;29.65;;;14.10;99.90;;;;;;7371658;32;20216;-62
2022/05/23 21:28:51;;;;;;;33.33;29.83;;;14.20;99.90;;;;;;7360026;32;20133;-61
2022/05/23 21:32:56;;;;;;;32.33;28.92;;;14.20;99.90;;;;;;7366439;32;20277;-61
2022/05/23 21:36:58;;;;;;;33.35;29.80;;;14.20;99.90;;;;;;7359891;32;20104;-62
2022/05/23 21:49:40;;;;;;;27.58;23.85;;;14.20;99.90;;;;;;7364054;32;20575;-62
2022/05/23 21:53:42;;;;;;;30.35;24.52;;;14.20;99.90;;;;;;7349063;32;20111;-63
2022/05/23 21:57:44;;;;;;;26.20;23.40;;;14.20;99.90;;;;;;7367896;32;20129;-62
2022/05/23 22:01:49;;;;;;;27.40;24.52;;;14.10;99.90;;;;;;7349908;32;20104;-62
2022/05/23 22:05:50;;;;;;;24.95;22.42;;;14.20;99.90;;;;;;7342253;32;20115;-62
2022/05/23 22:09:52;;;;;;;23.45;20.70;;;14.20;99.90;;;;;;7358964;32;20127;-62
2022/05/23 22:13:54;;;;;;;24.48;19.27;;;14.10;99.90;;;;;;7343603;32;20768;-62
2022/05/23 22:17:56;;;;;;;25.25;20.90;;;14.10;99.90;;;;;;7360496;32;20127;-62
2022/05/23 22:21:59;;;;;;;26.83;22.13;;;14.10;99.90;;;;;;7357250;32;20177;-62
2022/05/23 22:26:08;;;;;;;28.40;23.48;;;14.10;99.90;;;;;;7361775;32;20103;-62
2022/05/23 22:30:10;;;;;;;33.88;27.35;;;14.10;99.90;;;;;;7345077;32;20186;-60
2022/05/23 22:34:12;;;;;;;31.65;27.33;;;14.10;99.90;;;;;;7350116;32;20160;-60
2022/05/23 22:38:14;;;;;;;35.95;28.33;;;14.10;99.90;;;;;;7370586;32;20400;-60
2022/05/23 22:42:16;;;;;;;33.80;30.15;;;14.10;99.90;;;;;;7366834;32;20121;-60
2022/05/23 22:46:18;;;;;;;32.75;28.52;;;14.20;99.90;;;;;;7358587;32;20188;-60